Terminal Aerodrome Forecast
Issued by NWS

Home | Current Version | Previous Version | Text Only | Print | Product List | Glossary On
Versions: 1 2 3 4 5 6 7 8 9 10 11 12 13 14 15 16 17 18 19
000
FTUS43 KGRR 311100
TAFAZO
TAF
KAZO 311140Z 3112/0112 32012G18KT P6SM -SHRA OVC015
     FM312000 36020G30KT 3SM -SHRASN BR OVC010
     FM312200 36018G28KT P6SM -SHSN BKN025
     FM010100 36014G22KT P6SM FEW035=

USA.gov is the U.S. government's official web portal to all federal, state and local government web resources and services.